Terminal Aerodrome Forecast
Issued by NWS

Home | Current Version | Previous Version | Text Only | Print | Product List | Glossary On
Versions: 1 2 3 4 5 6 7 8 9 10 11 12 13 14 15 16 17 18
000
FTUS43 KAPX 310500
TAFAPN
TAF
KAPN 310536Z 3106/0106 23006KT P6SM BKN050
     FM310800 25006KT 6SM BR OVC009
     FM311500 28007KT P6SM OVC013
     FM311800 32006KT P6SM BKN025
     FM312000 05005KT P6SM SCT035
     FM010000 00000KT P6SM SKC=

USA.gov is the U.S. government's official web portal to all federal, state and local government web resources and services.